Time;durP1;ratioP1;P1;durP2;ratioP2;P2;SDS_P1;SDS_P2;PMS_P1;PMS_P2;Temp;Humidity;BMP_temperature;BMP_pressure;BME280_temperature;BME280_humidity;BME280_pressure;Samples;Min_cycle;Max_cycle;Signal;HPM_P1;HPM_P2
2021/03/23 00:00:54;;;;;;;22.35;9.02;;;;;;;3.76;100.00;98334.09;5093183;28;20058;-77
2021/03/23 00:03:38;;;;;;;26.88;9.35;;;;;;;3.73;100.00;98338.09;5093095;28;20044;-76
2021/03/23 00:06:06;;;;;;;22.05;9.00;;;;;;;3.77;100.00;98338.38;5083582;28;20516;-75
2021/03/23 00:08:43;;;;;;;28.38;8.90;;;;;;;3.71;100.00;98342.91;5067269;28;20079;-76
2021/03/23 00:11:32;;;;;;;21.40;9.18;;;;;;;3.74;100.00;98349.59;5091887;28;20047;-76
2021/03/23 00:14:01;;;;;;;18.90;8.55;;;;;;;3.68;100.00;98351.44;5091642;28;20044;-75
2021/03/23 00:16:34;;;;;;;19.17;8.40;;;;;;;3.68;100.00;98346.06;5090129;28;20044;-74
2021/03/23 00:19:01;;;;;;;24.48;9.98;;;;;;;3.66;100.00;98345.53;5092005;28;20047;-77
2021/03/23 00:21:27;;;;;;;20.92;8.55;;;;;;;3.70;100.00;98354.66;5085294;28;20089;-74
2021/03/23 00:23:56;;;;;;;24.23;9.40;;;;;;;3.74;100.00;98346.94;5077983;28;20063;-76
2021/03/23 00:26:23;;;;;;;21.27;9.85;;;;;;;3.68;100.00;98346.06;5071060;28;20040;-76
2021/03/23 00:28:50;;;;;;;23.92;9.73;;;;;;;3.68;100.00;98353.28;5074588;28;20415;-74
2021/03/23 00:31:18;;;;;;;29.00;9.77;;;;;;;3.70;100.00;98357.31;5054303;28;20040;-75
2021/03/23 00:33:56;;;;;;;21.70;9.88;;;;;;;3.66;100.00;98356.22;5069674;28;20054;-76
2021/03/23 00:36:29;;;;;;;22.40;10.48;;;;;;;3.63;100.00;98353.25;5070781;28;20048;-76
2021/03/23 00:38:55;;;;;;;26.58;10.82;;;;;;;3.67;100.00;98354.34;5069898;28;20055;-76
2021/03/23 00:41:23;;;;;;;20.75;9.90;;;;;;;3.68;100.00;98355.97;5069662;28;20051;-76
2021/03/23 00:43:50;;;;;;;26.77;10.65;;;;;;;3.65;100.00;98353.78;5071191;28;20526;-75
2021/03/23 00:46:16;;;;;;;25.50;10.35;;;;;;;3.60;100.00;98357.22;5069404;28;20129;-75
2021/03/23 00:48:42;;;;;;;25.52;10.23;;;;;;;3.63;100.00;98358.59;5070409;28;20051;-75
2021/03/23 00:51:09;;;;;;;26.25;10.05;;;;;;;3.62;100.00;98351.63;5069468;28;20491;-76
2021/03/23 00:53:34;;;;;;;25.40;10.20;;;;;;;3.65;100.00;98365.31;5056840;28;20377;-76
2021/03/23 00:56:01;;;;;;;26.27;11.00;;;;;;;3.69;100.00;98355.69;5077698;28;20119;-76
2021/03/23 00:58:28;;;;;;;23.23;11.07;;;;;;;3.62;100.00;98352.44;5070846;28;20131;-76
2021/03/23 01:00:54;;;;;;;25.38;10.43;;;;;;;3.74;100.00;98360.31;5070811;28;20048;-76
2021/03/23 01:03:21;;;;;;;29.65;10.90;;;;;;;3.70;100.00;98359.19;5070711;28;20290;-76
2021/03/23 01:05:50;;;;;;;24.75;11.60;;;;;;;3.66;100.00;98361.59;5070286;28;20128;-76
2021/03/23 01:08:16;;;;;;;25.27;11.68;;;;;;;3.68;100.00;98354.09;5070815;28;20427;-76
2021/03/23 01:10:43;;;;;;;26.48;11.45;;;;;;;3.68;100.00;98346.06;5053344;28;20438;-75
2021/03/23 01:13:09;;;;;;;35.40;12.15;;;;;;;3.71;100.00;98360.81;5070021;28;20041;-76
2021/03/23 01:15:35;;;;;;;23.15;11.13;;;;;;;3.71;100.00;98344.75;5053003;28;20045;-76
2021/03/23 01:18:02;;;;;;;25.83;11.30;;;;;;;3.76;100.00;98350.16;5070630;28;20048;-76
2021/03/23 01:20:30;;;;;;;23.13;11.23;;;;;;;3.74;100.00;98339.69;5052861;28;20499;-75
2021/03/23 01:22:57;;;;;;;23.30;10.75;;;;;;;3.81;100.00;98344.84;5070737;28;20510;-76
2021/03/23 01:25:24;;;;;;;23.98;10.73;;;;;;;3.77;100.00;98349.88;5070666;28;20049;-76
2021/03/23 01:27:50;;;;;;;20.38;10.05;;;;;;;3.81;100.00;98352.06;5069602;28;20036;-76
2021/03/23 01:30:20;;;;;;;23.55;10.55;;;;;;;3.74;100.00;98334.31;5070220;28;20044;-76
2021/03/23 01:32:47;;;;;;;21.20;9.52;;;;;;;3.82;100.00;98346.44;5070152;28;20051;-75
2021/03/23 01:35:14;;;;;;;23.42;9.93;;;;;;;3.78;100.00;98337.31;5068514;28;20484;-76
2021/03/23 01:37:40;;;;;;;23.02;10.30;;;;;;;3.78;100.00;98340.00;5068414;28;20123;-76
2021/03/23 01:40:08;;;;;;;19.70;9.93;;;;;;;3.88;100.00;98341.94;5068770;28;20102;-74
2021/03/23 01:42:42;;;;;;;24.23;9.55;;;;;;;3.76;100.00;98337.59;5069117;28;20412;-76
2021/03/23 01:45:38;;;;;;;26.23;10.23;;;;;;;3.70;100.00;98332.41;5068313;28;20052;-76
2021/03/23 01:48:08;;;;;;;;;;;;;;;3.72;100.00;98339.13;5069237;28;20131;-76
2021/03/23 01:50:34;;;;;;;20.20;9.15;;;;;;;3.68;100.00;98331.88;5068616;28;19924;-77
2021/03/23 01:53:12;;;;;;;23.58;9.40;;;;;;;3.68;100.00;98335.38;5068317;28;20043;-76
2021/03/23 01:55:39;;;;;;;28.95;9.15;;;;;;;3.66;100.00;98331.31;5069642;28;20131;-77
2021/03/23 01:58:06;;;;;;;20.67;8.65;;;;;;;3.64;100.00;98330.75;5069183;28;20052;-75
2021/03/23 02:00:33;;;;;;;20.80;8.00;;;;;;;3.61;100.00;98321.34;5070532;28;20070;-75
2021/03/23 02:03:00;;;;;;;22.83;8.35;;;;;;;3.58;100.00;98331.78;5070191;28;20048;-75
2021/03/23 02:05:29;;;;;;;21.83;7.72;;;;;;;3.57;100.00;98330.97;5070943;28;20052;-75
2021/03/23 02:07:57;;;;;;;16.90;7.55;;;;;;;3.55;100.00;98329.59;5070445;28;20510;-76
2021/03/23 02:10:24;;;;;;;19.33;8.05;;;;;;;3.58;100.00;98335.25;5069830;28;20067;-75
2021/03/23 02:12:51;;;;;;;18.75;7.65;;;;;;;3.63;100.00;98326.47;5070254;28;20510;-76
2021/03/23 02:15:21;;;;;;;19.67;8.07;;;;;;;3.60;100.00;98321.63;5069101;28;20147;-74
2021/03/23 02:18:15;;;;;;;17.55;7.45;;;;;;;3.58;100.00;98334.44;5067393;28;20058;-76
2021/03/23 02:21:09;;;;;;;19.58;7.30;;;;;;;3.61;100.00;98325.91;5069333;28;20060;-75
2021/03/23 02:23:47;;;;;;;26.00;8.23;;;;;;;3.47;100.00;98311.31;5047347;28;20048;-76
2021/03/23 02:26:21;;;;;;;20.63;7.88;;;;;;;3.57;100.00;98322.13;5069170;28;20048;-75
2021/03/23 02:29:11;;;;;;;16.15;6.97;;;;;;;3.58;100.00;98329.09;5069016;28;20051;-75
2021/03/23 02:31:44;;;;;;;18.88;7.25;;;;;;;3.56;100.00;98329.34;5069368;28;20082;-74
2021/03/23 02:34:13;;;;;;;20.80;7.05;;;;;;;3.55;100.00;98330.41;5068604;28;20377;-74
2021/03/23 02:36:41;;;;;;;16.63;6.63;;;;;;;3.56;100.00;98333.91;5069901;28;20098;-76
2021/03/23 02:39:10;;;;;;;20.75;6.65;;;;;;;3.55;100.00;98324.25;5067047;28;20411;-76
2021/03/23 02:41:37;;;;;;;18.63;6.72;;;;;;;3.56;100.00;98326.66;5067834;28;20496;-76
2021/03/23 02:44:03;;;;;;;15.95;6.60;;;;;;;3.54;100.00;98333.31;5068790;28;20484;-75
2021/03/23 02:46:30;;;;;;;13.68;6.50;;;;;;;3.51;100.00;98339.19;5068726;28;20044;-75
2021/03/23 02:48:56;;;;;;;17.02;6.43;;;;;;;3.56;100.00;98337.38;5068135;28;20060;-76
2021/03/23 02:51:22;;;;;;;17.83;6.57;;;;;;;3.51;100.00;98329.28;5069537;28;20396;-76
2021/03/23 02:53:49;;;;;;;16.27;6.63;;;;;;;3.56;100.00;98348.06;5067714;28;20056;-76
2021/03/23 02:56:16;;;;;;;20.20;7.00;;;;;;;3.57;100.00;98352.38;5069717;28;20135;-75
2021/03/23 02:58:42;;;;;;;18.88;7.28;;;;;;;3.59;100.00;98341.41;5069300;28;20127;-76
2021/03/23 03:01:09;;;;;;;19.25;6.40;;;;;;;3.55;100.00;98334.94;5067713;28;20045;-77
2021/03/23 03:03:38;;;;;;;19.73;6.93;;;;;;;3.46;100.00;98339.94;5069550;28;20036;-76
2021/03/23 03:06:05;;;;;;;17.00;6.43;;;;;;;3.47;100.00;98352.28;5067443;28;20156;-76
2021/03/23 03:08:33;;;;;;;21.25;7.03;;;;;;;3.43;100.00;98348.47;5068668;28;20048;-75
2021/03/23 03:11:00;;;;;;;13.93;6.07;;;;;;;3.44;100.00;98349.28;5078967;28;20043;-76
2021/03/23 03:13:31;;;;;;;20.88;6.93;;;;;;;3.47;100.00;98352.28;5071948;28;20098;-77
2021/03/23 03:15:57;;;;;;;18.00;6.32;;;;;;;3.44;100.00;98328.69;5088102;28;20098;-76
2021/03/23 03:18:24;;;;;;;17.20;6.80;;;;;;;3.45;100.00;98356.25;5076138;28;20036;-75
2021/03/23 03:20:52;;;;;;;15.07;6.45;;;;;;;3.47;100.00;98359.50;5054488;28;20048;-74
2021/03/23 03:23:19;;;;;;;21.27;6.82;;;;;;;3.51;100.00;98363.28;5072517;28;20435;-75
2021/03/23 03:25:50;;;;;;;14.80;6.90;;;;;;;3.47;100.00;98348.78;5068582;28;20095;-75
2021/03/23 03:28:17;;;;;;;15.98;7.32;;;;;;;3.45;100.00;98364.28;5078749;28;20066;-73
2021/03/23 03:30:44;;;;;;;21.77;7.25;;;;;;;3.46;100.00;98353.31;5080337;28;20045;-75
2021/03/23 03:33:13;;;;;;;21.48;7.13;;;;;;;3.44;100.00;98358.13;5089127;28;20507;-74
2021/03/23 03:35:41;;;;;;;21.98;6.82;;;;;;;3.51;100.00;98358.72;5090016;28;20109;-75
2021/03/23 03:38:07;;;;;;;18.27;7.15;;;;;;;3.49;100.00;98357.38;5090494;28;20051;-73
2021/03/23 03:40:42;;;;;;;16.50;6.93;;;;;;;3.48;100.00;98367.28;5090527;28;20040;-74
2021/03/23 03:43:10;;;;;;;16.52;7.00;;;;;;;3.49;100.00;98366.19;5092425;28;20479;-74
2021/03/23 03:45:37;;;;;;;15.32;6.97;;;;;;;3.48;100.00;98375.31;5090522;28;20457;-75
2021/03/23 03:48:04;;;;;;;18.58;7.03;;;;;;;3.47;100.00;98367.50;5089991;28;20043;-74
2021/03/23 03:50:30;;;;;;;20.63;7.55;;;;;;;3.44;100.00;98374.19;5088508;28;20051;-74
2021/03/23 03:52:57;;;;;;;19.60;7.40;;;;;;;3.40;100.00;98366.91;5083586;28;20051;-75
2021/03/23 03:55:28;;;;;;;21.08;7.55;;;;;;;3.44;100.00;98368.81;5088302;28;20047;-74
2021/03/23 03:57:54;;;;;;;20.05;7.57;;;;;;;3.44;100.00;98371.50;5088594;28;20224;-75
2021/03/23 04:00:26;;;;;;;18.17;8.23;;;;;;;3.38;100.00;98374.38;5087642;28;20558;-74
2021/03/23 04:02:52;;;;;;;18.98;8.07;;;;;;;3.37;100.00;98384.28;5089435;28;20040;-76
2021/03/23 04:05:22;;;;;;;20.20;8.50;;;;;;;3.24;100.00;98379.31;5073741;28;20483;-75
2021/03/23 04:07:49;;;;;;;22.23;9.27;;;;;;;3.18;100.00;98388.31;5094293;28;20044;-77
2021/03/23 04:10:19;;;;;;;19.08;8.77;;;;;;;3.10;100.00;98384.22;5094538;28;20055;-75
2021/03/23 04:12:46;;;;;;;25.75;9.50;;;;;;;3.03;100.00;98388.13;5094487;28;20094;-74
2021/03/23 04:15:18;;;;;;;22.85;10.52;;;;;;;3.01;100.00;98398.25;5095442;28;20043;-75
2021/03/23 04:17:44;;;;;;;27.70;10.00;;;;;;;2.91;100.00;98401.63;5095176;28;20044;-75
2021/03/23 04:20:12;;;;;;;28.80;11.32;;;;;;;2.88;100.00;98404.78;5093903;28;20507;-75
2021/03/23 04:22:39;;;;;;;26.25;11.68;;;;;;;2.83;100.00;98398.56;5096120;28;20040;-75
2021/03/23 04:25:07;;;;;;;29.02;11.63;;;;;;;2.80;100.00;98401.72;5096848;28;20083;-74
2021/03/23 04:27:33;;;;;;;29.50;11.90;;;;;;;2.82;100.00;98403.09;5095813;28;20048;-74
2021/03/23 04:29:59;;;;;;;32.15;12.82;;;;;;;2.76;100.00;98405.94;5095516;28;20165;-75
2021/03/23 04:32:25;;;;;;;31.95;13.05;;;;;;;2.75;100.00;98404.31;5096247;28;20055;-74
2021/03/23 04:34:51;;;;;;;37.05;14.75;;;;;;;2.68;100.00;98406.34;5093494;28;20487;-74
2021/03/23 04:37:17;;;;;;;34.38;13.68;;;;;;;2.73;100.00;98407.25;5092991;28;20055;-75
2021/03/23 04:39:43;;;;;;;36.65;14.32;;;;;;;2.68;100.00;98407.19;5095770;28;20036;-74
2021/03/23 04:42:10;;;;;;;34.60;14.00;;;;;;;2.71;100.00;98411.22;5101516;28;20475;-76
2021/03/23 04:44:36;;;;;;;38.00;14.73;;;;;;;2.67;100.00;98418.91;5104078;28;20445;-73
2021/03/23 04:47:02;;;;;;;42.50;14.80;;;;;;;2.68;100.00;98425.88;5093626;28;20032;-75
2021/03/23 04:49:29;;;;;;;38.75;14.02;;;;;;;2.67;100.00;98423.44;5076218;28;20047;-74
2021/03/23 04:51:55;;;;;;;36.78;14.70;;;;;;;2.66;100.00;98416.50;5078031;28;20043;-75
2021/03/23 04:54:21;;;;;;;36.03;14.32;;;;;;;2.63;100.00;98422.31;5077720;28;20104;-74
2021/03/23 04:56:47;;;;;;;37.08;15.02;;;;;;;2.67;100.00;98431.47;5077643;28;20041;-75
2021/03/23 05:01:47;;;;;;;41.20;15.57;;;;;;;2.69;100.00;98430.16;5006801;28;20050;-79
2021/03/23 05:04:18;;;;;;;47.15;15.98;;;;;;;2.69;100.00;98424.81;5009588;28;20458;-79
2021/03/23 05:06:45;;;;;;;40.65;16.20;;;;;;;2.70;100.00;98425.63;4991867;28;20045;-79
2021/03/23 05:09:12;;;;;;;39.38;16.67;;;;;;;2.71;100.00;98440.63;4991638;28;20145;-78
2021/03/23 05:11:38;;;;;;;48.33;17.00;;;;;;;2.68;100.00;98430.41;4991782;28;20064;-79
2021/03/23 05:14:07;;;;;;;41.22;16.92;;;;;;;2.85;100.00;98428.53;4992167;28;20088;-79
2021/03/23 05:16:34;;;;;;;53.63;18.08;;;;;;;2.83;100.00;98423.44;4990360;28;20041;-78
2021/03/23 05:19:00;;;;;;;40.75;17.75;;;;;;;2.89;100.00;98430.44;4992797;28;20191;-78
2021/03/23 05:21:27;;;;;;;41.33;17.45;;;;;;;2.95;100.00;98436.69;4976208;28;20073;-78
2021/03/23 05:23:57;;;;;;;41.88;16.48;;;;;;;2.98;100.00;98438.88;5010423;28;20137;-77
2021/03/23 05:26:24;;;;;;;35.15;15.77;;;;;;;2.92;100.00;98439.84;5009834;28;20049;-77
2021/03/23 05:28:51;;;;;;;38.75;15.43;;;;;;;2.84;100.00;98435.72;4991955;28;20072;-77
2021/03/23 05:31:18;;;;;;;34.90;15.57;;;;;;;2.88;100.00;98436.88;4988139;28;20038;-76
2021/03/23 05:33:44;;;;;;;37.20;15.25;;;;;;;2.88;100.00;98449.44;4985063;28;20046;-78
2021/03/23 05:36:11;;;;;;;46.65;17.35;;;;;;;2.81;100.00;98438.91;5008847;28;20053;-78
2021/03/23 05:38:37;;;;;;;40.38;17.92;;;;;;;2.78;100.00;98442.06;5011922;28;20491;-78
2021/03/23 05:41:10;;;;;;;46.58;18.52;;;;;;;2.81;100.00;98446.94;5014549;28;20156;-78
2021/03/23 05:43:45;;;;;;;41.08;18.75;;;;;;;2.80;100.00;98444.50;4996275;28;20049;-78
2021/03/23 05:46:14;;;;;;;46.03;19.02;;;;;;;2.86;100.00;98441.66;4981929;28;20056;-78
2021/03/23 05:48:56;;;;;;;47.03;20.70;;;;;;;2.87;100.00;98447.78;5009090;28;20042;-78
2021/03/23 05:51:27;;;;;;;64.97;23.67;;;;;;;2.81;100.00;98448.78;5011839;28;20528;-77
2021/03/23 05:54:02;;;;;;;62.90;23.60;;;;;;;2.84;100.00;98457.13;4993821;28;20076;-80
2021/03/23 05:56:28;;;;;;;56.85;23.55;;;;;;;2.87;100.00;98456.63;5008889;28;20038;-79
2021/03/23 05:59:02;;;;;;;68.60;22.75;;;;;;;2.90;100.00;98456.16;4987396;28;20054;-78
2021/03/23 06:01:48;;;;;;;56.30;20.52;;;;;;;2.91;100.00;98448.94;4984338;28;20042;-78
2021/03/23 06:04:21;;;;;;;49.40;19.63;;;;;;;2.92;100.00;98456.69;4988753;28;20052;-77
2021/03/23 06:06:58;;;;;;;45.83;19.38;;;;;;;2.94;100.00;98459.94;4990205;28;20045;-76
2021/03/23 06:09:32;;;;;;;43.42;19.05;;;;;;;2.96;100.00;98460.53;4990107;28;20045;-77
2021/03/23 06:12:27;;;;;;;43.17;19.30;;;;;;;2.95;100.00;98472.25;5006595;28;20050;-76
2021/03/23 06:15:15;;;;;;;50.03;18.95;;;;;;;2.99;100.00;98465.34;4998007;28;20068;-77
2021/03/23 06:18:04;;;;;;;46.25;20.40;;;;;;;3.08;100.00;98469.25;4990742;28;20051;-77
2021/03/23 06:20:45;;;;;;;53.20;22.15;;;;;;;3.08;100.00;98452.38;4989574;28;20049;-77
2021/03/23 06:23:34;;;;;;;49.63;22.58;;;;;;;3.05;100.00;98453.69;4996296;28;20050;-77
2021/03/23 06:26:03;;;;;;;46.58;21.52;;;;;;;3.09;100.00;98459.38;4999004;28;20061;-77
2021/03/23 06:29:05;;;;;;;56.25;21.73;;;;;;;3.09;100.00;98467.38;4987781;28;20041;-77
2021/03/23 06:31:46;;;;;;;61.55;22.55;;;;;;;3.21;100.00;98469.94;5006509;28;20061;-77
2021/03/23 06:34:24;;;;;;;49.65;22.58;;;;;;;3.19;100.00;98470.19;4989867;28;20045;-77
2021/03/23 06:36:51;;;;;;;43.25;20.77;;;;;;;3.20;100.00;98471.81;5009709;28;20053;-76
2021/03/23 06:39:18;;;;;;;46.15;21.15;;;;;;;3.28;100.00;98473.28;4993198;28;20474;-77
2021/03/23 06:41:58;;;;;;;47.15;22.23;;;;;;;3.28;100.00;98468.69;5006793;28;20064;-77
2021/03/23 06:44:26;;;;;;;43.65;21.30;;;;;;;3.32;100.00;98469.03;4989989;28;20484;-77
2021/03/23 06:46:53;;;;;;;52.92;22.80;;;;;;;3.35;100.00;98474.72;4973110;28;20067;-77
2021/03/23 06:49:30;;;;;;;50.42;23.13;;;;;;;3.37;100.00;98472.59;5007449;28;20580;-77
2021/03/23 06:52:00;;;;;;;51.25;23.60;;;;;;;3.37;100.00;98477.94;5003987;28;20057;-77
2021/03/23 06:54:28;;;;;;;53.53;23.73;;;;;;;3.38;100.00;98479.53;4989720;28;20045;-77
2021/03/23 06:57:27;;;;;;;53.10;24.95;;;;;;;3.32;100.00;98475.19;5006580;28;20060;-77
2021/03/23 07:00:05;;;;;;;53.63;25.33;;;;;;;3.33;100.00;98474.13;4957857;28;20057;-77
2021/03/23 07:02:41;;;;;;;58.50;26.92;;;;;;;3.20;100.00;98476.38;4988765;28;20077;-77
2021/03/23 07:05:22;;;;;;;55.25;27.20;;;;;;;3.31;100.00;98481.59;4992557;28;20045;-77
2021/03/23 07:07:51;;;;;;;55.30;25.40;;;;;;;3.32;100.00;98477.06;4988737;28;20068;-77
2021/03/23 07:10:27;;;;;;;58.88;26.77;;;;;;;3.42;100.00;98478.00;4999454;28;20389;-76
2021/03/23 07:12:54;;;;;;;62.00;27.10;;;;;;;3.34;100.00;98467.72;5002375;28;20488;-77
2021/03/23 07:15:22;;;;;;;56.08;26.33;;;;;;;3.47;100.00;98482.59;5004577;28;20120;-78
2021/03/23 07:17:59;;;;;;;50.42;24.50;;;;;;;3.43;100.00;98471.56;4999258;28;20609;-76
2021/03/23 07:20:28;;;;;;;50.55;24.70;;;;;;;3.46;100.00;98479.13;4999404;28;20056;-76
2021/03/23 07:22:55;;;;;;;47.65;24.25;;;;;;;3.51;100.00;98486.41;4989492;28;20404;-77
2021/03/23 07:25:41;;;;;;;46.00;22.80;;;;;;;3.38;100.00;98468.84;5005474;28;20049;-77
2021/03/23 07:28:28;;;;;;;50.45;23.83;;;;;;;3.46;100.00;98481.78;5017428;28;20050;-77
2021/03/23 07:31:03;;;;;;;51.08;23.77;;;;;;;3.50;100.00;98472.22;4988158;28;20044;-77
2021/03/23 07:34:10;;;;;;;50.72;22.77;;;;;;;3.48;100.00;98493.09;4989817;28;20069;-77
2021/03/23 07:36:43;;;;;;;48.70;23.10;;;;;;;3.54;100.00;98484.03;4925338;29;20059;-77
2021/03/23 07:39:35;;;;;;;46.35;21.83;;;;;;;3.51;100.00;98483.75;4974672;28;20075;-77
2021/03/23 07:42:28;;;;;;;41.92;21.52;;;;;;;3.55;100.00;98480.31;4990103;28;20085;-77
2021/03/23 07:45:01;;;;;;;46.45;21.48;;;;;;;3.57;100.00;98488.91;4955798;28;20218;-77
2021/03/23 07:47:32;;;;;;;40.67;21.65;;;;;;;3.66;100.00;98489.28;4973008;28;20271;-77
2021/03/23 07:50:06;;;;;;;42.47;19.33;;;;;;;3.72;100.00;98485.59;4997058;28;20049;-77
2021/03/23 07:52:41;;;;;;;46.92;19.75;;;;;;;3.81;100.00;98486.78;4989170;28;20136;-77
2021/03/23 07:55:18;;;;;;;40.33;17.00;;;;;;;3.80;100.00;98482.47;4971654;28;20046;-77
2021/03/23 07:58:06;;;;;;;33.60;17.05;;;;;;;4.04;100.00;98483.81;4989376;28;20069;-77
2021/03/23 08:00:32;;;;;;;32.97;16.15;;;;;;;4.07;100.00;98493.22;4946983;28;20057;-77
2021/03/23 08:03:27;;;;;;;32.05;15.70;;;;;;;4.16;100.00;98486.34;4982152;28;20169;-77
2021/03/23 08:06:24;;;;;;;28.50;14.65;;;;;;;4.16;100.00;98480.97;4989532;28;20100;-76
2021/03/23 08:09:28;;;;;;;24.20;12.55;;;;;;;4.12;100.00;98482.56;4971065;28;20050;-78
2021/03/23 08:12:11;;;;;;;25.63;13.73;;;;;;;4.11;100.00;98487.09;4971985;28;20042;-78
2021/03/23 08:15:08;;;;;;;25.05;12.90;;;;;;;4.23;100.00;98485.06;4989139;28;20053;-77
2021/03/23 08:18:02;;;;;;;28.50;13.98;;;;;;;4.26;100.00;98489.94;4971419;28;20039;-76
2021/03/23 08:20:54;;;;;;;30.03;15.60;;;;;;;4.17;100.00;98496.81;4972026;28;20046;-76
2021/03/23 08:23:37;;;;;;;30.10;16.13;;;;;;;4.04;100.00;98480.34;4971156;28;20038;-76
2021/03/23 08:26:31;;;;;;;33.45;17.42;;;;;;;3.94;100.00;98491.75;4989998;28;20053;-77
2021/03/23 08:29:05;;;;;;;36.85;19.25;;;;;;;4.01;100.00;98496.91;4989062;28;20053;-76
2021/03/23 08:31:43;;;;;;;46.05;23.38;;;;;;;3.92;100.00;98498.44;4971784;28;20050;-75
2021/03/23 08:34:22;;;;;;;54.72;25.77;;;;;;;3.89;100.00;98501.59;4955621;28;20490;-76
2021/03/23 08:37:19;;;;;;;43.53;24.38;;;;;;;3.94;100.00;98510.50;4971398;28;20124;-76
2021/03/23 08:40:28;;;;;;;47.08;26.75;;;;;;;3.93;100.00;98508.88;4971823;28;20230;-76
2021/03/23 08:42:55;;;;;;;53.80;30.35;;;;;;;3.98;100.00;98510.78;4980805;28;20054;-76
2021/03/23 08:45:28;;;;;;;60.70;31.17;;;;;;;4.17;100.00;98514.78;4990277;28;20078;-76
2021/03/23 08:48:03;;;;;;;52.63;30.50;;;;;;;4.32;100.00;98522.97;4989600;28;20062;-77
2021/03/23 08:50:34;;;;;;;50.78;28.50;;;;;;;4.31;100.00;98505.28;4955089;28;20046;-76
2021/03/23 08:53:05;;;;;;;46.75;24.83;;;;;;;4.18;100.00;98513.72;4972026;28;20046;-76
2021/03/23 08:55:32;;;;;;;45.42;24.48;;;;;;;4.20;100.00;98516.94;4991445;28;20117;-77
2021/03/23 08:58:10;;;;;;;45.75;23.55;;;;;;;4.27;100.00;98514.88;4995195;28;20081;-77
2021/03/23 09:00:36;;;;;;;35.83;19.23;;;;;;;4.38;100.00;98516.59;4992682;28;20425;-77
2021/03/23 09:03:06;;;;;;;23.58;14.25;;;;;;;4.24;100.00;98520.72;4957740;28;20047;-78
2021/03/23 09:05:44;;;;;;;21.40;12.25;;;;;;;4.33;100.00;98513.88;4990621;28;20043;-78
2021/03/23 09:08:39;;;;;;;21.70;12.55;;;;;;;4.44;100.00;98520.94;4973903;28;20046;-77
2021/03/23 09:11:19;;;;;;;20.77;11.30;;;;;;;4.28;100.00;98519.97;4971811;28;20094;-77
2021/03/23 09:14:09;;;;;;;16.65;10.32;;;;;;;4.34;100.00;98515.47;4971858;28;20437;-77
2021/03/23 09:16:49;;;;;;;20.05;10.75;;;;;;;4.55;100.00;98519.97;4980486;28;20078;-78
2021/03/23 09:19:41;;;;;;;19.20;10.60;;;;;;;4.79;100.00;98517.78;4990073;28;20417;-78
2021/03/23 09:22:10;;;;;;;17.75;10.77;;;;;;;4.75;100.00;98522.81;4989208;28;20462;-78
2021/03/23 09:24:39;;;;;;;21.25;11.18;;;;;;;4.74;100.00;98518.53;4989200;28;20100;-77
2021/03/23 09:27:34;;;;;;;22.13;10.95;;;;;;;4.67;100.00;98515.25;4972555;28;20046;-77
2021/03/23 09:30:01;;;;;;;21.40;12.50;;;;;;;4.47;100.00;98516.94;4952785;28;20273;-75
2021/03/23 09:32:29;;;;;;;26.17;15.32;;;;;;;4.48;100.00;98516.69;4987850;28;20631;-76
2021/03/23 09:35:02;;;;;;;27.05;15.05;;;;;;;4.41;100.00;98518.78;4987711;28;20045;-76
2021/03/23 09:37:48;;;;;;;28.90;16.02;;;;;;;4.36;100.00;98513.38;4988764;28;20405;-76
2021/03/23 09:40:17;;;;;;;32.50;15.77;;;;;;;4.46;100.00;98518.81;5007346;28;20147;-76
2021/03/23 09:42:52;;;;;;;24.08;16.02;;;;;;;4.71;100.00;98521.72;5008974;28;20113;-76
2021/03/23 09:45:33;;;;;;;27.48;15.63;;;;;;;5.11;100.00;98521.22;5009146;28;20071;-77
2021/03/23 09:48:15;;;;;;;22.45;13.50;;;;;;;5.16;100.00;98512.44;4992085;28;20061;-76
2021/03/23 09:50:50;;;;;;;21.67;13.05;;;;;;;5.16;100.00;98512.44;4988873;28;20410;-76
2021/03/23 09:53:29;;;;;;;20.98;13.40;;;;;;;5.13;100.00;98515.63;5006578;28;20056;-77
2021/03/23 09:56:24;;;;;;;19.83;12.43;;;;;;;5.10;100.00;98524.19;5006959;28;20288;-77
2021/03/23 09:59:01;;;;;;;18.60;11.90;;;;;;;4.99;100.00;98510.69;4989186;28;20451;-76
2021/03/23 10:01:28;;;;;;;23.63;13.38;;;;;;;4.95;100.00;98516.84;4988923;28;20046;-76
2021/03/23 10:03:57;;;;;;;26.95;14.70;;;;;;;4.99;100.00;98517.94;5007413;28;20084;-77
2021/03/23 10:06:45;;;;;;;24.35;14.38;;;;;;;5.12;100.00;98512.13;5007220;28;20117;-76
2021/03/23 10:09:11;;;;;;;25.25;14.10;;;;;;;5.24;100.00;98502.00;5006685;28;20057;-76
2021/03/23 10:11:43;;;;;;;21.85;13.23;;;;;;;5.21;100.00;98510.59;5006907;28;20050;-76
2021/03/23 10:14:20;;;;;;;19.90;12.13;;;;;;;5.21;100.00;98512.47;4988960;28;20045;-76
2021/03/23 10:16:46;;;;;;;22.23;12.50;;;;;;;5.36;100.00;98515.22;4991068;28;20159;-77
2021/03/23 10:19:24;;;;;;;17.88;11.48;;;;;;;5.35;100.00;98519.78;4972659;28;20042;-76
2021/03/23 10:22:14;;;;;;;18.67;10.25;;;;;;;5.33;100.00;98507.69;4990355;28;20046;-76
2021/03/23 10:24:43;;;;;;;17.70;10.40;;;;;;;5.14;100.00;98517.22;5006219;28;20061;-76
2021/03/23 10:27:14;;;;;;;21.38;11.43;;;;;;;5.09;100.00;98515.31;4972496;28;20450;-77
2021/03/23 10:29:55;;;;;;;17.58;10.68;;;;;;;5.21;100.00;98518.63;4988624;28;20038;-76
2021/03/23 10:32:33;;;;;;;17.48;9.98;;;;;;;5.22;100.00;98517.56;5006218;28;20176;-76
2021/03/23 10:35:07;;;;;;;16.17;9.93;;;;;;;5.23;100.00;98521.88;5006811;28;20068;-77
2021/03/23 10:37:33;;;;;;;19.45;10.00;;;;;;;5.19;100.00;98523.44;5007899;28;20133;-77
2021/03/23 10:39:59;;;;;;;14.13;9.48;;;;;;;5.20;100.00;98516.19;5008392;28;20415;-77
2021/03/23 10:42:31;;;;;;;22.15;11.02;;;;;;;5.49;100.00;98518.28;5007719;28;20121;-77
2021/03/23 10:45:30;;;;;;;28.88;12.85;;;;;;;5.40;100.00;98509.06;4989437;28;20062;-77
2021/03/23 10:48:24;;;;;;;14.27;8.68;;;;;;;5.43;100.00;98521.19;4988492;28;20045;-77
2021/03/23 10:51:15;;;;;;;14.13;8.15;;;;;;;5.38;100.00;98523.84;4988114;28;20042;-77
2021/03/23 10:53:58;;;;;;;14.98;7.95;;;;;;;5.12;100.00;98527.41;4987890;28;20053;-77
2021/03/23 10:56:29;;;;;;;18.05;9.13;;;;;;;5.04;100.00;98523.34;4972472;28;20088;-76
2021/03/23 10:59:10;;;;;;;18.83;9.10;;;;;;;5.04;100.00;98534.88;4987843;28;20354;-77
2021/03/23 11:01:57;;;;;;;24.10;10.27;;;;;;;5.01;100.00;98521.16;5062608;22;20441;-76
2021/03/23 11:04:25;;;;;;;19.92;10.10;;;;;;;4.95;100.00;98536.44;5064947;28;20131;-75
2021/03/23 11:06:51;;;;;;;16.95;9.45;;;;;;;5.13;100.00;98535.22;5050463;28;20052;-76
2021/03/23 11:09:18;;;;;;;18.10;9.80;;;;;;;5.18;100.00;98534.44;5068850;28;20048;-75
2021/03/23 11:11:56;;;;;;;16.50;9.60;;;;;;;5.09;100.00;98533.28;5049799;28;20514;-73
2021/03/23 11:14:22;;;;;;;17.75;9.65;;;;;;;5.01;100.00;98538.06;5070349;28;20054;-75
2021/03/23 11:16:53;;;;;;;17.85;10.00;;;;;;;5.01;100.00;98537.25;5054268;28;20102;-74
2021/03/23 11:19:32;;;;;;;18.17;9.13;;;;;;;4.99;100.00;98540.22;5072517;28;20327;-75
2021/03/23 11:22:03;;;;;;;18.95;9.57;;;;;;;5.07;100.00;98538.91;5071195;28;20415;-77
2021/03/23 11:24:29;;;;;;;16.85;10.07;;;;;;;5.04;100.00;98539.44;5053610;28;20237;-76
2021/03/23 11:26:58;;;;;;;18.73;10.35;;;;;;;4.98;100.00;98532.44;5071856;28;20040;-75
2021/03/23 11:29:24;;;;;;;16.80;9.60;;;;;;;5.14;100.00;98526.09;5072406;28;20045;-73
2021/03/23 11:31:50;;;;;;;16.88;9.32;;;;;;;5.13;100.00;98532.53;5053905;28;20048;-73
2021/03/23 11:34:17;;;;;;;17.38;8.75;;;;;;;5.11;100.00;98536.53;5053982;28;20204;-75
2021/03/23 11:36:43;;;;;;;15.15;8.98;;;;;;;5.13;100.00;98534.41;5054313;28;20052;-74
2021/03/23 11:39:10;;;;;;;18.38;8.93;;;;;;;5.28;100.00;98543.38;5071923;28;20401;-76
2021/03/23 11:41:43;;;;;;;13.20;8.00;;;;;;;5.46;100.00;98539.47;5053952;28;20044;-75
2021/03/23 11:44:24;;;;;;;17.02;7.20;;;;;;;5.36;100.00;98540.22;5044054;28;20037;-74
2021/03/23 11:47:01;;;;;;;15.73;8.07;;;;;;;5.18;100.00;98539.81;5067959;28;20052;-75
2021/03/23 11:49:44;;;;;;;16.08;7.85;;;;;;;5.43;100.00;98531.91;5051509;28;20450;-75